Time;durP1;ratioP1;P1;durP2;ratioP2;P2;SDS_P1;SDS_P2;PMS_P1;PMS_P2;Temp;Humidity;BMP_temperature;BMP_pressure;BME280_temperature;BME280_humidity;BME280_pressure;Samples;Min_cycle;Max_cycle;Signal;HPM_P1;HPM_P2
2023/03/22 00:01:45;;;;;;;5.18;1.85;;;;;;;8.58;94.80;100965.56;6159436;23;20014;-74
2023/03/22 00:04:11;;;;;;;8.52;1.90;;;;;;;8.56;94.37;100970.53;6159458;23;20467;-74
2023/03/22 00:06:38;;;;;;;8.98;2.03;;;;;;;8.54;94.81;100962.25;6158891;23;20022;-74
2023/03/22 00:09:05;;;;;;;10.52;1.80;;;;;;;8.54;94.27;100966.81;6159836;23;20018;-74
2023/03/22 00:11:31;;;;;;;9.13;1.70;;;;;;;8.52;94.42;100961.19;6158791;23;20096;-74
2023/03/22 00:13:58;;;;;;;6.85;1.92;;;;;;;8.48;94.87;100955.22;6159313;23;20021;-74
2023/03/22 00:16:25;;;;;;;7.28;2.10;;;;;;;8.45;94.86;100948.09;6159129;23;20022;-74
2023/03/22 00:18:52;;;;;;;11.15;2.22;;;;;;;8.44;94.90;100951.91;6159111;23;20081;-74
2023/03/22 00:21:18;;;;;;;7.18;2.72;;;;;;;8.43;95.10;100945.13;6132665;23;20105;-74
2023/03/22 00:23:45;;;;;;;8.25;2.55;;;;;;;8.41;95.41;100944.78;6159431;23;20436;-73
2023/03/22 00:26:13;;;;;;;5.65;3.13;;;;;;;8.38;95.54;100941.09;6158983;23;20357;-75
2023/03/22 00:28:41;;;;;;;9.15;2.13;;;;;;;8.35;95.39;100944.59;6133447;23;20469;-74
2023/03/22 00:31:09;;;;;;;7.18;2.20;;;;;;;8.32;95.82;100932.91;6159342;23;20021;-74
2023/03/22 00:33:36;;;;;;;4.75;2.15;;;;;;;8.31;95.82;100931.38;6132527;23;20022;-75
2023/03/22 00:36:07;;;;;;;5.47;2.25;;;;;;;8.31;95.86;100941.25;6158686;23;20022;-74
2023/03/22 00:38:37;;;;;;;7.38;2.38;;;;;;;8.30;95.95;100937.09;6158861;23;20018;-75
2023/03/22 00:41:15;;;;;;;4.13;2.25;;;;;;;8.27;96.13;100924.69;6132893;23;20056;-74
2023/03/22 00:43:44;;;;;;;5.25;1.95;;;;;;;8.26;95.83;100933.81;6132197;23;20066;-74
2023/03/22 00:46:11;;;;;;;6.35;1.95;;;;;;;8.27;95.94;100927.34;6158673;23;20018;-74
2023/03/22 00:48:38;;;;;;;9.85;2.50;;;;;;;8.27;95.93;100927.34;6108669;23;20073;-74
2023/03/22 00:51:05;;;;;;;6.88;2.40;;;;;;;8.24;95.86;100915.66;6132602;23;20025;-74
2023/03/22 00:53:35;;;;;;;6.30;2.20;;;;;;;8.22;96.00;100917.97;6132384;23;20099;-74
2023/03/22 00:56:02;;;;;;;3.22;2.08;;;;;;;8.21;96.03;100915.75;6159079;23;20057;-74
2023/03/22 00:58:37;;;;;;;8.57;2.42;;;;;;;8.21;95.91;100913.84;6132423;23;20084;-74
2023/03/22 01:01:06;;;;;;;6.32;2.13;;;;;;;8.19;95.69;100902.16;6132976;23;20404;-74
2023/03/22 01:03:33;;;;;;;5.05;2.40;;;;;;;8.18;95.90;100903.31;6157942;23;20463;-74
2023/03/22 01:06:01;;;;;;;13.20;2.15;;;;;;;8.17;95.82;100902.56;6132893;23;20029;-74
2023/03/22 01:08:32;;;;;;;7.75;2.03;;;;;;;8.16;95.99;100898.44;6132457;23;20022;-74
2023/03/22 01:11:00;;;;;;;8.25;2.40;;;;;;;8.14;95.81;100895.44;6159465;23;20021;-74
2023/03/22 01:13:27;;;;;;;7.20;2.30;;;;;;;8.15;96.04;100875.72;6132556;23;20356;-74
2023/03/22 01:15:54;;;;;;;8.98;2.60;;;;;;;8.15;95.79;100875.72;6132900;23;20036;-75
2023/03/22 01:18:22;;;;;;;9.52;2.70;;;;;;;8.14;95.97;100871.59;6131921;23;20018;-74
2023/03/22 01:20:50;;;;;;;6.68;2.72;;;;;;;8.13;95.92;100872.75;6158911;23;20018;-74
2023/03/22 01:23:16;;;;;;;4.80;2.25;;;;;;;8.11;95.86;100867.13;6132413;23;20029;-74
2023/03/22 01:25:43;;;;;;;4.15;1.98;;;;;;;8.11;96.16;100858.41;6158932;23;20022;-74
2023/03/22 01:28:09;;;;;;;3.10;1.98;;;;;;;8.12;95.97;100851.94;6132584;23;20018;-74
2023/03/22 01:30:39;;;;;;;8.50;2.90;;;;;;;8.11;95.93;100850.47;6158954;23;20022;-75
2023/03/22 01:33:06;;;;;;;4.90;2.00;;;;;;;8.11;95.97;100845.91;6158637;23;20074;-75
2023/03/22 01:35:34;;;;;;;4.25;2.00;;;;;;;8.12;95.69;100846.66;6131654;23;20030;-74
2023/03/22 01:38:01;;;;;;;6.80;2.13;;;;;;;8.11;95.63;100843.25;6132689;23;20049;-74
2023/03/22 01:40:27;;;;;;;5.32;2.20;;;;;;;8.11;95.52;100837.94;6132578;23;20097;-74
2023/03/22 01:42:55;;;;;;;6.97;2.05;;;;;;;8.12;95.37;100825.44;6132407;23;20433;-75
2023/03/22 01:45:39;;;;;;;6.80;2.00;;;;;;;8.12;95.52;100830.75;6132414;23;20045;-75
2023/03/22 01:48:13;;;;;;;6.85;2.20;;;;;;;8.11;95.53;100819.38;6158071;23;20097;-75
2023/03/22 01:50:44;;;;;;;6.03;2.30;;;;;;;8.12;95.76;100817.47;6132131;23;20025;-75
2023/03/22 01:53:14;;;;;;;5.03;2.10;;;;;;;8.13;95.69;100805.72;6131836;23;20022;-76
2023/03/22 01:55:41;;;;;;;3.40;1.98;;;;;;;8.15;95.44;100809.44;6132087;23;20050;-75
2023/03/22 01:58:16;;;;;;;3.67;2.28;;;;;;;8.17;95.60;100804.44;6132096;23;20400;-75
2023/03/22 02:00:51;;;;;;;6.10;2.60;;;;;;;8.17;95.56;100796.50;6132199;23;20026;-75
2023/03/22 02:03:57;;;;;;;6.43;2.45;;;;;;;8.18;95.54;100790.03;6158196;23;20515;-76
2023/03/22 02:06:25;;;;;;;4.47;2.15;;;;;;;8.18;95.65;100787.38;6132001;23;20029;-76
2023/03/22 02:08:58;;;;;;;9.63;2.97;;;;;;;8.20;95.47;100781.66;6109791;23;20101;-75
2023/03/22 02:11:37;;;;;;;4.80;2.33;;;;;;;8.19;95.67;100775.59;6131997;23;20033;-75
2023/03/22 02:14:37;;;;;;;7.10;2.40;;;;;;;8.21;95.75;100762.66;6132007;23;20108;-75
2023/03/22 02:18:18;;;;;;;4.57;2.20;;;;;;;8.21;95.94;100761.94;6134715;23;20026;-75
2023/03/22 02:21:18;;;;;;;4.28;2.53;;;;;;;8.22;95.92;100758.84;6131966;23;20014;-75
2023/03/22 02:23:56;;;;;;;6.30;2.40;;;;;;;8.24;96.04;100761.84;6107812;23;20018;-75
2023/03/22 02:26:40;;;;;;;7.72;2.67;;;;;;;8.21;96.29;100757.38;6158302;23;20416;-75
2023/03/22 02:29:25;;;;;;;7.95;2.28;;;;;;;8.20;96.38;100750.56;6132885;23;20085;-75
2023/03/22 02:32:00;;;;;;;7.80;2.95;;;;;;;8.19;96.38;100753.66;6131511;23;20464;-75
2023/03/22 02:35:10;;;;;;;7.35;3.08;;;;;;;8.17;96.60;100740.06;6132158;23;20511;-75
2023/03/22 02:37:59;;;;;;;8.50;2.95;;;;;;;8.15;96.82;100737.84;6132137;23;20029;-75
2023/03/22 02:40:40;;;;;;;9.85;3.15;;;;;;;8.16;97.19;100738.59;6132157;23;20033;-75
2023/03/22 02:43:37;;;;;;;6.95;3.33;;;;;;;8.16;97.24;100728.72;6132768;23;20014;-75
2023/03/22 02:46:21;;;;;;;8.48;3.22;;;;;;;8.19;97.55;100729.78;6158372;23;20025;-76
2023/03/22 02:49:01;;;;;;;7.60;3.53;;;;;;;8.18;97.79;100725.66;6132256;23;20014;-76
2023/03/22 02:51:41;;;;;;;5.40;4.00;;;;;;;8.20;98.08;100720.66;6131631;23;20022;-75
2023/03/22 02:54:17;;;;;;;9.75;4.20;;;;;;;8.20;98.86;100708.16;6158447;23;20847;-75
2023/03/22 02:57:07;;;;;;;8.20;4.60;;;;;;;8.21;99.29;100709.63;6158049;23;20093;-75
2023/03/22 02:59:38;;;;;;;11.10;4.63;;;;;;;8.23;99.69;100712.59;6130800;23;20428;-75
2023/03/22 03:02:10;;;;;;;6.88;5.28;;;;;;;8.23;100.00;100709.94;6158663;23;20096;-75
2023/03/22 03:04:45;;;;;;;9.52;5.50;;;;;;;8.24;100.00;100698.19;6131608;23;20018;-75
2023/03/22 03:07:14;;;;;;;13.88;5.95;;;;;;;8.27;100.00;100705.28;6159554;23;20014;-75
2023/03/22 03:09:42;;;;;;;11.07;6.20;;;;;;;8.29;100.00;100699.56;6132946;23;20022;-75
2023/03/22 03:12:19;;;;;;;8.32;5.72;;;;;;;8.29;100.00;100705.63;6132887;23;20026;-75
2023/03/22 03:14:47;;;;;;;10.93;6.28;;;;;;;8.30;100.00;100696.50;6132489;23;20054;-75
2023/03/22 03:17:32;;;;;;;10.80;6.80;;;;;;;8.32;100.00;100698.72;6132954;23;20093;-76
2023/03/22 03:20:20;;;;;;;12.50;7.38;;;;;;;8.32;100.00;100699.50;6160028;23;20077;-75
2023/03/22 03:23:01;;;;;;;9.32;6.43;;;;;;;8.30;100.00;100701.78;6133282;23;20023;-75
2023/03/22 03:25:45;;;;;;;9.15;6.97;;;;;;;8.27;100.00;100697.34;6159497;23;20013;-75
2023/03/22 03:28:37;;;;;;;10.73;6.65;;;;;;;8.27;100.00;100707.94;6133477;23;20323;-75
2023/03/22 03:31:15;;;;;;;11.85;7.28;;;;;;;8.26;100.00;100703.81;6133559;23;20018;-75
2023/03/22 03:34:08;;;;;;;13.27;6.80;;;;;;;8.27;100.00;100705.28;6133197;23;20026;-75
2023/03/22 03:36:39;;;;;;;15.20;8.32;;;;;;;8.26;100.00;100709.13;6159368;23;20444;-75
2023/03/22 03:39:11;;;;;;;16.17;7.85;;;;;;;8.25;100.00;100704.97;6160087;23;20014;-75
2023/03/22 03:41:39;;;;;;;10.85;7.32;;;;;;;8.24;100.00;100700.84;6159318;23;20917;-75
2023/03/22 03:44:07;;;;;;;9.98;7.43;;;;;;;8.27;100.00;100701.91;6132578;23;20022;-75
2023/03/22 03:46:35;;;;;;;11.70;8.00;;;;;;;8.29;100.00;100700.31;6158695;23;20018;-75
2023/03/22 03:49:03;;;;;;;15.00;8.60;;;;;;;8.31;100.00;100702.53;6133517;23;20022;-75
2023/03/22 03:51:32;;;;;;;11.90;7.95;;;;;;;8.32;100.00;100702.16;6159163;23;20014;-75
2023/03/22 03:53:58;;;;;;;16.75;8.40;;;;;;;8.34;100.00;100696.41;6133195;23;20082;-75
2023/03/22 03:56:25;;;;;;;12.60;8.40;;;;;;;8.35;100.00;100700.56;6159221;23;20026;-76
2023/03/22 03:58:53;;;;;;;12.82;8.50;;;;;;;8.37;100.00;100695.56;6132136;23;20021;-75
2023/03/22 04:01:20;;;;;;;11.18;8.23;;;;;;;8.40;100.00;100686.75;6132641;23;20021;-75
2023/03/22 04:03:56;;;;;;;14.73;7.60;;;;;;;8.44;100.00;100690.03;6132974;23;20033;-75
2023/03/22 04:06:38;;;;;;;12.32;7.82;;;;;;;8.45;100.00;100699.47;6132215;23;20456;-75
2023/03/22 04:09:10;;;;;;;18.48;8.70;;;;;;;8.46;100.00;100697.56;6133018;23;20014;-75
2023/03/22 04:11:41;;;;;;;12.30;7.75;;;;;;;8.47;100.00;100696.41;6133043;23;20462;-74
2023/03/22 04:14:08;;;;;;;10.88;8.10;;;;;;;8.49;100.00;100700.09;6132414;23;20026;-74
2023/03/22 04:16:36;;;;;;;12.35;8.38;;;;;;;8.48;100.00;100695.97;6132559;23;20029;-74
2023/03/22 04:19:05;;;;;;;11.60;8.07;;;;;;;8.51;100.00;100689.06;6133041;23;20022;-74
2023/03/22 04:21:31;;;;;;;17.05;8.30;;;;;;;8.51;100.00;100692.47;6158880;23;20053;-74
2023/03/22 04:24:00;;;;;;;10.27;7.15;;;;;;;8.55;100.00;100687.78;6132821;23;20421;-74
2023/03/22 04:26:31;;;;;;;10.87;8.30;;;;;;;8.55;100.00;100682.50;6131472;23;20018;-74
2023/03/22 04:29:16;;;;;;;10.90;7.15;;;;;;;8.57;100.00;100682.81;6159239;23;20223;-74
2023/03/22 04:31:47;;;;;;;14.50;8.07;;;;;;;8.57;100.00;100676.75;6132768;23;20069;-74
2023/03/22 04:34:23;;;;;;;14.32;7.75;;;;;;;8.58;100.00;100678.25;6132521;23;20050;-74
2023/03/22 04:36:56;;;;;;;10.77;7.55;;;;;;;8.59;100.00;100666.47;6133060;23;20029;-74
2023/03/22 04:39:27;;;;;;;14.30;7.50;;;;;;;8.61;100.00;100666.78;6132952;23;20096;-74
2023/03/22 04:42:32;;;;;;;12.18;7.78;;;;;;;8.61;100.00;100662.22;6140376;23;20033;-75
2023/03/22 04:45:28;;;;;;;11.98;7.57;;;;;;;8.62;100.00;100660.31;6154228;23;20113;-75
2023/03/22 04:47:59;;;;;;;11.35;7.75;;;;;;;8.63;100.00;100670.50;6133135;23;20022;-75
2023/03/22 04:50:27;;;;;;;10.82;7.50;;;;;;;8.61;100.00;100670.19;6132624;23;20060;-75
2023/03/22 04:52:58;;;;;;;9.07;7.20;;;;;;;8.64;100.00;100671.97;6133222;23;20459;-75
2023/03/22 04:55:26;;;;;;;14.23;7.05;;;;;;;8.64;100.00;100664.03;6132134;23;20026;-75
2023/03/22 04:57:53;;;;;;;14.48;7.38;;;;;;;8.65;100.00;100659.44;6132656;23;20022;-75
2023/03/22 05:00:22;;;;;;;10.25;6.78;;;;;;;8.68;100.00;100654.03;6132555;23;20093;-75
2023/03/22 05:02:49;;;;;;;9.35;6.25;;;;;;;8.69;100.00;100652.88;6132348;23;20112;-75
2023/03/22 05:05:24;;;;;;;15.07;7.35;;;;;;;8.69;100.00;100658.16;6132558;23;20026;-75
2023/03/22 05:07:51;;;;;;;11.85;6.78;;;;;;;8.69;100.00;100647.56;6132410;23;20487;-75
2023/03/22 05:10:18;;;;;;;10.30;6.95;;;;;;;8.69;100.00;100652.13;6107751;23;20022;-75
2023/03/22 05:12:45;;;;;;;13.63;7.28;;;;;;;8.69;100.00;100644.16;6132584;23;20028;-75
2023/03/22 05:15:17;;;;;;;9.60;6.50;;;;;;;8.67;100.00;100646.50;6132468;23;20018;-75
2023/03/22 05:17:44;;;;;;;7.90;6.22;;;;;;;8.67;100.00;100643.84;6132454;23;20018;-75
2023/03/22 05:20:11;;;;;;;13.10;6.82;;;;;;;8.64;100.00;100644.69;6132373;23;20022;-75
2023/03/22 05:22:39;;;;;;;13.02;6.47;;;;;;;8.62;100.00;100639.81;6132127;23;20017;-75
2023/03/22 05:25:09;;;;;;;11.73;6.30;;;;;;;8.60;100.00;100636.09;6131834;23;20042;-75
2023/03/22 05:27:38;;;;;;;12.73;6.07;;;;;;;8.60;100.00;100641.41;6132137;23;20419;-75
2023/03/22 05:30:32;;;;;;;12.75;6.25;;;;;;;8.58;100.00;100641.84;6112841;23;20470;-75
2023/03/22 05:33:05;;;;;;;9.57;5.38;;;;;;;8.58;100.00;100638.44;6132517;23;20420;-75
2023/03/22 05:35:40;;;;;;;8.93;6.40;;;;;;;8.57;100.00;100629.75;6132057;23;20032;-75
2023/03/22 05:38:09;;;;;;;9.88;5.95;;;;;;;8.57;100.00;100629.75;6132163;23;20018;-75
2023/03/22 05:40:40;;;;;;;;;;;;;;;8.56;100.00;100638.13;6132116;23;20114;-75
2023/03/22 05:43:07;;;;;;;7.60;5.30;;;;;;;8.55;100.00;100629.44;6132706;23;19928;-76
2023/03/22 05:45:38;;;;;;;9.25;5.75;;;;;;;8.53;100.00;100631.03;6131689;23;20082;-74
2023/03/22 05:48:15;;;;;;;8.48;5.68;;;;;;;8.51;100.00;100636.75;6131292;23;20026;-73
2023/03/22 05:50:42;;;;;;;13.50;5.72;;;;;;;8.50;100.00;100632.63;6131638;23;20018;-74
2023/03/22 05:53:10;;;;;;;7.72;4.97;;;;;;;8.50;100.00;100622.00;6131670;23;20025;-74
2023/03/22 05:55:59;;;;;;;8.15;5.32;;;;;;;8.51;100.00;100620.09;6132195;23;20068;-74
2023/03/22 05:58:30;;;;;;;9.25;5.03;;;;;;;8.52;100.00;100616.28;6131336;23;20025;-74
2023/03/22 06:01:02;;;;;;;8.93;5.18;;;;;;;8.52;100.00;100613.63;6132127;23;20037;-74
2023/03/22 06:03:55;;;;;;;8.15;5.15;;;;;;;8.52;100.00;100614.34;6153721;23;20026;-74
2023/03/22 06:06:33;;;;;;;8.65;5.25;;;;;;;8.53;100.00;100625.72;6158688;23;20018;-74
2023/03/22 06:09:09;;;;;;;8.93;4.82;;;;;;;8.55;100.00;100624.13;6131878;23;20049;-75
2023/03/22 06:11:46;;;;;;;8.90;5.10;;;;;;;8.58;100.00;100619.88;6132114;23;20463;-74
2023/03/22 06:14:14;;;;;;;6.07;5.03;;;;;;;8.59;100.00;100622.09;6107709;23;20024;-74
2023/03/22 06:17:00;;;;;;;7.95;5.25;;;;;;;8.64;100.00;100620.81;6158484;23;20030;-75
2023/03/22 06:19:26;;;;;;;8.93;4.90;;;;;;;8.65;100.00;100617.00;6132014;23;20018;-75
2023/03/22 06:21:56;;;;;;;7.25;4.57;;;;;;;8.66;100.00;100621.13;6132090;23;20018;-75
2023/03/22 06:24:25;;;;;;;7.35;4.88;;;;;;;8.66;100.00;100627.19;6131323;23;20029;-74
2023/03/22 06:26:52;;;;;;;12.27;4.45;;;;;;;8.69;100.00;100630.88;6131619;23;20018;-74
2023/03/22 06:29:18;;;;;;;8.18;4.38;;;;;;;8.72;100.00;100621.34;6158393;23;20021;-75
2023/03/22 06:31:46;;;;;;;8.38;4.78;;;;;;;8.78;100.00;100622.28;6158442;23;20022;-75
2023/03/22 06:34:13;;;;;;;5.22;4.60;;;;;;;8.87;100.00;100622.34;6131542;23;20408;-75
2023/03/22 06:36:41;;;;;;;9.65;4.90;;;;;;;9.00;99.70;100617.72;6131879;23;20029;-75
2023/03/22 06:39:14;;;;;;;8.00;4.40;;;;;;;9.16;98.73;100614.16;6132221;23;20018;-74
2023/03/22 06:41:43;;;;;;;7.80;4.28;;;;;;;9.38;97.98;100624.78;6133017;23;20440;-75
2023/03/22 06:44:10;;;;;;;9.73;4.15;;;;;;;9.85;96.21;100624.59;6133258;23;20022;-75
2023/03/22 06:46:59;;;;;;;8.90;3.90;;;;;;;9.74;95.24;100624.25;6158650;23;20097;-75
2023/03/22 06:49:42;;;;;;;8.18;4.18;;;;;;;9.67;95.13;100627.88;6133266;23;20766;-75
2023/03/22 06:52:14;;;;;;;7.40;3.83;;;;;;;9.60;95.35;100636.13;6132736;23;20076;-75
2023/03/22 06:54:41;;;;;;;6.63;3.83;;;;;;;9.55;95.08;100634.78;6133093;23;20028;-75
2023/03/22 06:57:08;;;;;;;11.43;3.70;;;;;;;9.57;94.81;100627.13;6132987;23;20033;-75
2023/03/22 06:59:35;;;;;;;8.30;3.90;;;;;;;9.61;94.84;100627.72;6108653;23;20018;-75
2023/03/22 07:02:02;;;;;;;8.50;3.63;;;;;;;9.67;94.46;100633.22;6134280;23;20523;-76
2023/03/22 07:04:29;;;;;;;7.15;3.95;;;;;;;9.69;94.75;100628.19;6133723;23;20088;-76
2023/03/22 07:07:11;;;;;;;7.43;3.50;;;;;;;9.70;93.90;100629.69;6133340;23;20054;-76
2023/03/22 07:09:39;;;;;;;10.00;3.40;;;;;;;9.71;93.85;100628.50;6109860;23;20578;-75
2023/03/22 07:12:06;;;;;;;7.32;3.47;;;;;;;9.72;93.79;100626.59;6132935;23;20050;-76
2023/03/22 07:14:32;;;;;;;8.90;3.45;;;;;;;9.69;93.67;100620.97;6159123;23;20519;-76
2023/03/22 07:17:07;;;;;;;5.32;3.17;;;;;;;9.69;93.89;100626.28;6133130;23;20033;-77
2023/03/22 07:19:34;;;;;;;4.95;3.17;;;;;;;9.70;93.40;100635.00;6134085;23;20017;-79
2023/03/22 07:22:05;;;;;;;7.32;3.20;;;;;;;9.70;93.23;100635.00;6160045;23;20093;-78
2023/03/22 07:24:33;;;;;;;10.55;3.58;;;;;;;9.69;93.42;100628.19;6134597;23;20017;-76
2023/03/22 07:27:02;;;;;;;5.95;2.80;;;;;;;9.69;93.05;100633.50;6133802;23;20054;-77
2023/03/22 07:29:30;;;;;;;8.90;2.67;;;;;;;9.71;92.56;100628.50;6109535;23;20050;-79
2023/03/22 07:31:57;;;;;;;5.65;2.83;;;;;;;9.76;92.50;100633.25;6133834;23;20053;-78
2023/03/22 07:34:30;;;;;;;8.70;2.95;;;;;;;9.85;92.12;100629.91;6133402;23;20435;-77
2023/03/22 07:37:03;;;;;;;6.57;2.78;;;;;;;9.93;91.48;100625.81;6133472;23;20034;-77
2023/03/22 07:39:30;;;;;;;8.50;2.60;;;;;;;9.96;91.16;100620.38;6133470;23;20022;-77
2023/03/22 07:41:57;;;;;;;4.47;2.22;;;;;;;9.99;91.04;100626.72;6110213;23;20046;-79
2023/03/22 07:44:24;;;;;;;4.45;2.70;;;;;;;10.03;90.71;100622.00;6160074;23;20796;-79
2023/03/22 07:47:14;;;;;;;8.68;2.58;;;;;;;10.11;90.79;100620.56;6097813;23;20031;-78
2023/03/22 07:49:54;;;;;;;6.75;2.55;;;;;;;10.14;90.30;100616.28;6097808;23;20022;-79
2023/03/22 07:52:26;;;;;;;11.38;2.42;;;;;;;10.15;89.83;100623.06;6073733;23;20019;-79
2023/03/22 07:54:52;;;;;;;6.72;2.50;;;;;;;10.16;89.77;100624.56;6098543;23;20018;-77
2023/03/22 07:57:19;;;;;;;8.90;2.42;;;;;;;10.18;89.50;100617.63;6073114;23;20488;-77
2023/03/22 07:59:52;;;;;;;8.20;2.50;;;;;;;10.22;89.23;100623.56;6073394;23;20102;-77
2023/03/22 08:02:19;;;;;;;5.68;2.40;;;;;;;10.30;88.81;100624.78;6049412;23;20202;-77
2023/03/22 08:04:51;;;;;;;6.90;2.87;;;;;;;10.39;88.68;100631.31;6073509;23;20098;-78
2023/03/22 08:07:30;;;;;;;12.82;2.90;;;;;;;10.50;88.83;100632.34;6073286;23;20042;-77
2023/03/22 08:09:57;;;;;;;3.63;2.25;;;;;;;10.56;87.96;100637.84;6098819;23;20555;-78
2023/03/22 08:12:26;;;;;;;8.73;2.40;;;;;;;10.63;86.56;100619.66;6097892;23;20497;-79
2023/03/22 08:15:02;;;;;;;6.75;2.40;;;;;;;10.71;87.47;100622.03;6074001;23;20019;-77
2023/03/22 08:17:30;;;;;;;7.43;2.70;;;;;;;10.78;86.84;100619.84;6097630;23;20202;-77
2023/03/22 08:19:57;;;;;;;6.53;3.13;;;;;;;10.79;86.19;100620.56;6097878;23;20023;-78
2023/03/22 08:22:39;;;;;;;7.72;2.88;;;;;;;10.77;86.79;100618.34;6074083;23;20183;-78
2023/03/22 08:25:17;;;;;;;7.20;2.35;;;;;;;10.78;86.33;100619.84;6152575;23;20022;-78
2023/03/22 08:27:44;;;;;;;6.88;2.90;;;;;;;10.76;85.36;100624.13;6133892;23;20021;-77
2023/03/22 08:30:12;;;;;;;8.05;2.72;;;;;;;10.76;85.71;100614.22;6132968;23;20053;-78
2023/03/22 08:32:39;;;;;;;6.28;2.38;;;;;;;10.77;86.29;100621.03;6160393;23;20018;-78
2023/03/22 08:35:07;;;;;;;6.15;2.65;;;;;;;10.78;85.64;100617.19;6133140;23;20069;-78
2023/03/22 08:37:34;;;;;;;4.97;2.78;;;;;;;10.81;85.50;100608.28;6159811;23;20026;-81
2023/03/22 08:40:06;;;;;;;5.97;2.60;;;;;;;10.86;85.74;100621.00;6133264;23;20018;-77
2023/03/22 08:42:50;;;;;;;4.68;2.60;;;;;;;10.92;85.68;100621.16;6133627;23;20351;-77
2023/03/22 08:45:17;;;;;;;5.25;2.80;;;;;;;10.99;85.25;100616.28;6132275;23;20022;-80
2023/03/22 08:47:53;;;;;;;6.72;2.50;;;;;;;11.11;84.09;100613.91;6127673;23;20031;-80
2023/03/22 08:50:22;;;;;;;8.23;2.63;;;;;;;11.15;84.10;100603.84;6128163;23;20022;-77
2023/03/22 08:53:03;;;;;;;7.70;2.22;;;;;;;11.34;83.23;100607.94;6128860;23;20480;-77
2023/03/22 08:55:34;;;;;;;7.95;2.95;;;;;;;11.41;82.50;100598.91;6128232;23;20022;-77
2023/03/22 08:58:11;;;;;;;7.95;2.53;;;;;;;11.39;82.22;100603.94;6130070;23;20145;-77
2023/03/22 09:00:41;;;;;;;7.03;2.85;;;;;;;11.35;82.08;100604.84;6130693;23;20500;-77
2023/03/22 09:03:23;;;;;;;7.72;3.00;;;;;;;11.23;83.05;100597.00;6126820;23;20026;-77
2023/03/22 09:05:50;;;;;;;5.13;2.85;;;;;;;11.14;82.86;100613.03;6128595;23;20029;-77
2023/03/22 09:08:16;;;;;;;9.43;2.85;;;;;;;11.09;82.56;100610.94;6130183;23;20098;-76
2023/03/22 09:10:51;;;;;;;6.75;2.78;;;;;;;11.06;82.09;100612.56;6128550;23;20456;-77
2023/03/22 09:13:20;;;;;;;7.20;2.80;;;;;;;11.06;82.28;100619.81;6128265;23;20018;-77
2023/03/22 09:15:53;;;;;;;8.05;2.70;;;;;;;11.07;81.62;100613.31;6128545;23;20046;-77
2023/03/22 09:18:24;;;;;;;6.20;2.70;;;;;;;11.12;82.04;100618.06;6127588;23;20486;-77
2023/03/22 09:20:52;;;;;;;10.23;3.17;;;;;;;11.13;81.98;100617.59;6130542;23;20021;-77
2023/03/22 09:23:23;;;;;;;8.65;2.70;;;;;;;11.19;81.77;100617.75;6128528;23;20449;-77
2023/03/22 09:25:51;;;;;;;7.95;2.72;;;;;;;11.16;82.40;100614.06;6128660;23;20356;-77
2023/03/22 09:28:22;;;;;;;9.85;3.17;;;;;;;11.18;82.57;100622.34;6127804;23;20073;-77
2023/03/22 09:30:50;;;;;;;7.78;2.78;;;;;;;11.22;82.53;100622.16;6127661;23;20029;-78
2023/03/22 09:33:16;;;;;;;7.65;3.00;;;;;;;11.22;82.76;100622.16;6129823;23;20051;-77
2023/03/22 09:35:48;;;;;;;4.50;2.42;;;;;;;11.16;83.46;100621.31;6128355;23;20018;-77
2023/03/22 09:38:15;;;;;;;5.03;2.28;;;;;;;11.11;84.57;100619.97;6127994;23;20033;-80
2023/03/22 09:40:59;;;;;;;5.68;2.40;;;;;;;11.08;84.30;100620.88;6104586;23;20018;-79
2023/03/22 09:43:34;;;;;;;9.13;2.55;;;;;;;11.03;84.74;100627.53;6128380;23;20101;-76
2023/03/22 09:46:05;;;;;;;7.82;2.30;;;;;;;11.00;85.62;100622.34;6127608;23;20471;-77
2023/03/22 09:48:36;;;;;;;8.18;2.50;;;;;;;11.02;86.23;100627.97;6158994;23;20077;-78
2023/03/22 09:51:04;;;;;;;5.35;2.50;;;;;;;10.94;86.72;100618.78;6159837;23;20460;-75
2023/03/22 09:53:31;;;;;;;9.65;2.28;;;;;;;10.89;87.53;100633.44;6159417;23;20799;-76
2023/03/22 09:56:19;;;;;;;7.05;2.80;;;;;;;10.84;88.52;100627.94;6133811;23;20077;-75
2023/03/22 09:58:49;;;;;;;6.55;2.50;;;;;;;10.77;88.82;100625.59;6159646;23;20449;-75
2023/03/22 10:01:33;;;;;;;7.85;3.10;;;;;;;10.66;89.13;100626.03;6158888;23;20597;-75
2023/03/22 10:04:05;;;;;;;9.35;2.90;;;;;;;10.63;89.78;100619.66;6159722;23;20018;-75
2023/03/22 10:06:32;;;;;;;6.43;3.40;;;;;;;10.56;90.17;100613.88;6132937;23;20014;-75
2023/03/22 10:09:12;;;;;;;3.97;2.45;;;;;;;10.56;91.05;100614.63;6132032;23;20368;-75
2023/03/22 10:11:54;;;;;;;7.78;2.58;;;;;;;10.58;91.18;100619.50;6159613;23;20353;-76
2023/03/22 10:14:34;;;;;;;;;;;;;;;10.57;90.57;100612.72;6159211;23;20048;-76
2023/03/22 10:17:05;;;;;;;5.10;2.33;;;;;;;10.57;91.17;100610.78;6160614;23;19921;-75
2023/03/22 10:19:57;;;;;;;8.33;3.00;;;;;;;10.56;92.06;100603.25;6160258;23;20422;-76
2023/03/22 10:22:32;;;;;;;8.05;2.75;;;;;;;10.55;92.21;100610.47;6160502;23;20056;-76
2023/03/22 10:25:00;;;;;;;5.65;2.90;;;;;;;10.54;92.64;100606.34;6161076;23;20411;-75
2023/03/22 10:27:29;;;;;;;6.78;3.25;;;;;;;10.55;92.83;100610.47;6160189;23;20456;-75
2023/03/22 10:30:07;;;;;;;6.70;2.78;;;;;;;10.57;93.18;100607.38;6133972;23;20015;-75
2023/03/22 10:32:42;;;;;;;5.28;2.40;;;;;;;10.59;92.75;100619.06;6160902;23;20014;-75
2023/03/22 10:35:23;;;;;;;8.10;2.58;;;;;;;10.58;94.30;100616.84;6160421;23;20014;-75
2023/03/22 10:37:51;;;;;;;8.95;2.28;;;;;;;10.57;93.22;100612.72;6160448;23;20444;-75
2023/03/22 10:40:22;;;;;;;7.32;2.85;;;;;;;10.56;94.06;100614.63;6160274;23;20030;-75
2023/03/22 10:42:55;;;;;;;5.70;2.55;;;;;;;10.58;94.08;100616.84;6160971;23;20444;-75
2023/03/22 10:45:25;;;;;;;8.63;2.67;;;;;;;10.54;94.32;100613.59;6159963;23;20463;-75
2023/03/22 10:48:02;;;;;;;8.70;2.50;;;;;;;10.50;94.33;100613.72;6104628;23;20456;-75
2023/03/22 10:50:33;;;;;;;7.97;2.67;;;;;;;10.47;95.13;100619.19;6130946;23;20023;-75
2023/03/22 10:53:04;;;;;;;4.13;2.33;;;;;;;10.48;95.06;100608.09;6129899;23;20022;-75
2023/03/22 10:55:31;;;;;;;7.53;2.40;;;;;;;10.44;94.31;100604.09;6129777;23;20025;-75
2023/03/22 10:58:13;;;;;;;11.43;2.33;;;;;;;10.41;94.58;100607.63;6128699;23;20448;-75
2023/03/22 11:01:06;;;;;;;;;;;;;;;10.43;94.37;100624.66;6130310;23;20022;-75
2023/03/22 11:03:41;;;;;;;8.70;2.53;;;;;;;10.50;94.80;100610.31;6127354;23;19949;-75
2023/03/22 11:06:12;;;;;;;7.20;2.55;;;;;;;10.55;95.00;100610.47;6130126;23;20404;-75
2023/03/22 11:08:40;;;;;;;4.60;2.05;;;;;;;10.56;95.88;100603.25;6129136;23;20441;-75
2023/03/22 11:11:15;;;;;;;7.88;2.03;;;;;;;10.58;95.77;100590.22;6129720;23;20274;-75
2023/03/22 11:13:42;;;;;;;6.63;2.08;;;;;;;10.69;96.09;100595.88;6129018;23;20015;-75
2023/03/22 11:16:08;;;;;;;6.10;2.13;;;;;;;10.76;95.92;100595.56;6129647;23;20019;-75
2023/03/22 11:18:35;;;;;;;5.13;2.60;;;;;;;10.84;95.47;100599.41;6130808;23;20452;-76
2023/03/22 11:21:08;;;;;;;6.68;2.70;;;;;;;10.85;94.66;100600.88;6130890;23;20026;-75
2023/03/22 11:23:37;;;;;;;5.47;2.40;;;;;;;10.86;95.03;100601.63;6130907;23;20018;-75
2023/03/22 11:26:10;;;;;;;4.30;2.10;;;;;;;10.86;94.37;100602.34;6130709;23;20015;-75
2023/03/22 11:28:46;;;;;;;5.00;1.77;;;;;;;10.80;94.12;100595.41;6130564;23;20462;-75
2023/03/22 11:31:15;;;;;;;5.93;2.08;;;;;;;10.81;94.04;100592.28;6129035;23;20018;-75
2023/03/22 11:33:54;;;;;;;8.32;2.28;;;;;;;10.83;93.92;100591.84;6129138;23;20015;-75
2023/03/22 11:36:22;;;;;;;6.80;2.38;;;;;;;10.82;93.71;100601.03;6130735;23;20083;-75
2023/03/22 11:38:56;;;;;;;5.20;1.80;;;;;;;10.83;93.64;100581.94;6129290;23;20424;-75
2023/03/22 11:41:26;;;;;;;6.10;2.35;;;;;;;10.86;93.68;100599.69;6131660;23;20029;-76
2023/03/22 11:44:00;;;;;;;8.82;2.22;;;;;;;10.90;92.76;100599.56;6131191;23;20014;-75
2023/03/22 11:46:28;;;;;;;4.32;2.22;;;;;;;10.92;93.63;100589.19;6133753;23;20010;-75
2023/03/22 11:49:01;;;;;;;5.63;2.30;;;;;;;10.91;92.28;100596.44;6134471;23;20018;-76
2023/03/22 11:51:32;;;;;;;2.33;2.10;;;;;;;10.90;92.26;100597.63;6160218;23;20394;-75
2023/03/22 11:54:19;;;;;;;5.43;2.20;;;;;;;10.89;92.14;100596.16;6160207;23;20013;-75